createdAt,value
2022-12-04T00:01:44.587Z,86.25
2022-12-04T00:06:53.972Z,86.90
2022-12-04T00:12:00.652Z,87.27
2022-12-04T00:17:04.212Z,87.61
2022-12-04T00:22:10.388Z,88.09
2022-12-04T00:27:13.950Z,87.41
2022-12-04T00:32:17.518Z,87.74
2022-12-04T00:37:22.716Z,87.25
2022-12-04T00:42:26.291Z,87.66
2022-12-04T00:47:29.860Z,87.14
2022-12-04T00:52:35.084Z,86.95
2022-12-04T00:57:38.637Z,88.29
2022-12-04T01:02:42.214Z,87.64
2022-12-04T01:07:47.555Z,88.25
2022-12-04T01:12:51.864Z,88.52
2022-12-04T01:17:55.400Z,88.36
2022-12-04T01:23:00.636Z,88.86
2022-12-04T01:28:04.295Z,88.66
2022-12-04T01:33:08.464Z,88.08
2022-12-04T01:38:13.683Z,88.83
2022-12-04T01:43:17.527Z,88.56
2022-12-04T01:48:27.116Z,88.49
2022-12-04T01:53:34.507Z,88.53
2022-12-04T01:58:43.885Z,88.14
2022-12-04T02:03:47.488Z,88.38
2022-12-04T02:08:52.868Z,88.64
2022-12-04T02:14:08.729Z,88.90
2022-12-04T02:19:33.750Z,89.54
2022-12-04T02:24:50.571Z,89.95
2022-12-04T02:30:03.145Z,89.94
2022-12-04T02:35:13.966Z,89.39
2022-12-04T02:40:23.977Z,90.06
2022-12-04T02:45:34.684Z,90.51
2022-12-04T02:50:41.163Z,90.05
2022-12-04T02:55:48.808Z,89.61
2022-12-04T03:00:55.703Z,89.49
2022-12-04T03:06:03.786Z,89.63
2022-12-04T03:11:07.657Z,90.54
2022-12-04T03:16:16.569Z,92.02
2022-12-04T03:21:23.796Z,91.72
2022-12-04T03:26:30.061Z,91.42
2022-12-04T03:31:41.158Z,91.69
2022-12-04T03:36:53.419Z,91.70
2022-12-04T03:42:02.522Z,91.16
2022-12-04T03:47:12.728Z,91.20
2022-12-04T03:52:21.787Z,91.15
2022-12-04T03:57:29.045Z,92.20
2022-12-04T04:02:38.532Z,91.17
2022-12-04T04:07:48.580Z,91.01
2022-12-04T04:12:57.010Z,91.30
2022-12-04T04:18:03.262Z,91.12
2022-12-04T04:23:10.389Z,90.66
2022-12-04T04:28:35.270Z,90.43
2022-12-04T04:33:48.823Z,90.01
2022-12-04T04:39:01.400Z,89.85
2022-12-04T04:44:17.034Z,90.51
2022-12-04T04:49:25.206Z,90.43
2022-12-04T04:54:30.784Z,91.18
2022-12-04T04:59:34.354Z,90.96
2022-12-04T05:04:39.514Z,90.62
2022-12-04T05:09:43.075Z,90.22
2022-12-04T05:14:48.247Z,89.85
2022-12-04T05:19:53.824Z,90.01
2022-12-04T05:24:57.733Z,90.75
2022-12-04T05:30:01.312Z,91.33
2022-12-04T05:35:11.139Z,90.01
2022-12-04T05:40:15.432Z,89.67
2022-12-04T05:45:19.180Z,90.36
2022-12-04T05:50:24.438Z,90.76
2022-12-04T05:55:28.022Z,91.03
2022-12-04T06:00:33.582Z,91.54
2022-12-04T06:05:38.778Z,91.89
2022-12-04T06:10:42.471Z,90.56
2022-12-04T06:15:46.061Z,91.01
2022-12-04T06:20:52.503Z,90.43
2022-12-04T06:25:56.378Z,90.35
2022-12-04T06:31:02.687Z,90.03
2022-12-04T06:36:15.176Z,87.34
2022-12-04T06:41:21.344Z,85.71
2022-12-04T06:46:26.599Z,83.87
2022-12-04T06:51:33.506Z,82.67
2022-12-04T06:56:37.193Z,82.37
2022-12-04T07:01:40.937Z,81.51
2022-12-04T07:06:46.181Z,80.63
2022-12-04T07:11:49.719Z,80.97
2022-12-04T07:16:53.460Z,80.71
2022-12-04T07:21:58.705Z,80.31
2022-12-04T07:27:03.015Z,80.11
2022-12-04T07:32:07.460Z,80.31
2022-12-04T07:37:12.848Z,81.93
2022-12-04T07:42:21.002Z,83.50
2022-12-04T07:47:27.473Z,85.25
2022-12-04T07:52:35.980Z,85.38
2022-12-04T07:57:39.523Z,86.92
2022-12-04T08:02:43.072Z,87.11
2022-12-04T08:07:48.463Z,88.17
2022-12-04T08:12:52.056Z,88.50
2022-12-04T08:17:56.064Z,87.91
2022-12-04T08:23:01.287Z,87.79
2022-12-04T08:28:04.877Z,88.10
2022-12-04T08:33:08.417Z,88.14
2022-12-04T08:38:14.517Z,87.92
2022-12-04T08:43:18.116Z,88.32
2022-12-04T08:48:21.732Z,88.35
2022-12-04T08:53:28.042Z,89.39
2022-12-04T08:58:31.639Z,89.73
2022-12-04T09:03:35.582Z,89.49
2022-12-04T09:08:40.826Z,89.46
2022-12-04T09:13:45.283Z,90.05
2022-12-04T09:18:49.763Z,89.94
2022-12-04T09:23:54.953Z,91.58
2022-12-04T09:29:00.968Z,91.47
2022-12-04T09:34:04.861Z,92.31
2022-12-04T09:39:11.744Z,92.91
2022-12-04T09:44:22.297Z,92.32
2022-12-04T09:49:30.256Z,92.81
2022-12-04T09:54:41.477Z,94.40
2022-12-04T09:59:45.731Z,94.76
2022-12-04T10:04:51.410Z,99.65
2022-12-04T10:10:00.607Z,98.97
2022-12-04T10:15:15.133Z,100.00
2022-12-04T10:20:36.780Z,100.00
2022-12-04T10:25:43.959Z,100.00
2022-12-04T10:30:49.352Z,100.00
2022-12-04T10:35:54.858Z,100.00
2022-12-04T10:41:07.757Z,100.00
2022-12-04T10:46:19.399Z,100.00
2022-12-04T10:51:23.446Z,100.00
2022-12-04T10:56:28.615Z,100.00
2022-12-04T11:01:34.109Z,100.00
2022-12-04T11:06:38.789Z,100.00
2022-12-04T11:11:44.518Z,100.00
2022-12-04T11:16:50.414Z,100.00
2022-12-04T11:21:55.450Z,100.00
2022-12-04T11:27:02.877Z,100.00
2022-12-04T11:32:08.443Z,100.00
2022-12-04T11:37:21.846Z,100.00
2022-12-04T11:42:31.031Z,100.00
2022-12-04T11:47:34.639Z,100.00
2022-12-04T11:52:51.941Z,100.00
2022-12-04T11:58:13.454Z,100.00
2022-12-04T12:03:23.964Z,100.00
2022-12-04T12:08:37.765Z,100.00
2022-12-04T12:13:53.952Z,100.00
2022-12-04T12:19:18.502Z,100.00
2022-12-04T12:24:29.787Z,100.00
2022-12-04T12:29:56.515Z,100.00
2022-12-04T12:35:01.378Z,100.00
2022-12-04T12:40:11.347Z,100.00
2022-12-04T12:45:27.933Z,100.00
2022-12-04T12:50:36.693Z,100.00
2022-12-04T12:55:45.237Z,100.00
2022-12-04T13:00:57.133Z,99.45
2022-12-04T13:06:06.828Z,99.54
2022-12-04T13:11:14.444Z,99.55
2022-12-04T13:16:25.213Z,99.69
2022-12-04T13:21:36.517Z,98.89
2022-12-04T13:26:49.423Z,100.00
2022-12-04T13:32:04.001Z,99.00
2022-12-04T13:37:34.348Z,98.78
2022-12-04T13:42:37.952Z,98.91
2022-12-04T13:47:43.142Z,98.92
2022-12-04T13:52:47.142Z,97.59
2022-12-04T13:57:55.504Z,96.79
2022-12-04T14:03:04.286Z,98.46
2022-12-04T14:08:22.292Z,98.60
2022-12-04T14:13:29.368Z,99.24
2022-12-04T14:18:34.777Z,99.25
2022-12-04T14:23:40.495Z,99.03
2022-12-04T14:28:44.074Z,98.89
2022-12-04T14:33:53.215Z,99.14
2022-12-04T14:39:13.123Z,99.79
2022-12-04T14:44:29.077Z,100.00
2022-12-04T14:49:47.240Z,100.00
2022-12-04T14:54:57.804Z,100.00
2022-12-04T15:00:01.791Z,100.00
2022-12-04T15:05:11.259Z,100.00
2022-12-04T15:10:21.028Z,98.31
2022-12-04T15:15:27.465Z,96.50
2022-12-04T15:20:39.069Z,96.06
2022-12-04T15:25:46.789Z,96.04
2022-12-04T15:30:52.255Z,96.07
2022-12-04T15:36:01.166Z,96.03
2022-12-04T15:41:05.484Z,96.57
2022-12-04T15:46:13.963Z,96.74
2022-12-04T15:51:22.053Z,98.11
2022-12-04T15:56:25.634Z,98.77
2022-12-04T16:01:38.452Z,100.00
2022-12-04T16:06:49.760Z,100.00
2022-12-04T16:12:00.843Z,100.00
2022-12-04T16:17:06.491Z,100.00
2022-12-04T16:22:20.089Z,100.00
2022-12-04T16:27:25.168Z,100.00
2022-12-04T16:32:32.359Z,100.00
2022-12-04T16:37:37.616Z,100.00
2022-12-04T16:42:41.960Z,100.00
2022-12-04T16:47:45.802Z,100.00
2022-12-04T16:52:51.280Z,100.00
2022-12-04T16:57:54.867Z,100.00
2022-12-04T17:02:59.074Z,100.00
2022-12-04T17:08:04.370Z,100.00
2022-12-04T17:13:07.940Z,100.00
2022-12-04T17:18:15.073Z,100.00
2022-12-04T17:23:22.927Z,100.00
2022-12-04T17:28:26.469Z,100.00
2022-12-04T17:33:30.264Z,100.00
2022-12-04T17:38:35.524Z,100.00
2022-12-04T17:43:39.088Z,99.28
2022-12-04T17:48:43.040Z,98.39
2022-12-04T17:53:48.723Z,100.00
2022-12-04T17:58:52.693Z,100.00
2022-12-04T18:03:57.645Z,100.00
2022-12-04T18:09:03.924Z,99.87
2022-12-04T18:14:11.980Z,98.67
2022-12-04T18:19:16.424Z,97.92
2022-12-04T18:24:22.020Z,100.00
2022-12-04T18:29:27.107Z,96.81
2022-12-04T18:34:30.668Z,96.25
2022-12-04T18:39:35.879Z,94.55
2022-12-04T18:44:39.428Z,96.88
2022-12-04T18:49:43.054Z,93.69
2022-12-04T18:54:48.283Z,94.33
2022-12-04T18:59:52.170Z,91.60
2022-12-04T19:04:55.702Z,91.91
2022-12-04T19:10:16.059Z,89.55
2022-12-04T19:15:20.051Z,85.73
2022-12-04T19:20:23.615Z,85.63
2022-12-04T19:25:28.791Z,84.92
2022-12-04T19:30:34.436Z,86.30
2022-12-04T19:35:38.006Z,85.38
2022-12-04T19:40:43.226Z,85.94
2022-12-04T19:45:49.416Z,82.57
2022-12-04T19:50:53.049Z,82.55
2022-12-04T19:55:58.234Z,80.55
2022-12-04T20:01:02.046Z,79.81
2022-12-04T20:06:07.281Z,77.57
2022-12-04T20:11:13.748Z,76.24
2022-12-04T20:16:18.784Z,76.40
2022-12-04T20:21:22.853Z,79.08
2022-12-04T20:26:30.004Z,77.83
2022-12-04T20:31:35.077Z,79.47
2022-12-04T20:36:40.895Z,77.45
2022-12-04T20:41:46.616Z,77.55
2022-12-04T20:46:50.279Z,72.26
2022-12-04T20:51:53.943Z,76.04
2022-12-04T20:56:59.126Z,75.09
2022-12-04T21:02:02.710Z,77.05
2022-12-04T21:07:06.551Z,78.26
2022-12-04T21:12:12.272Z,75.16
2022-12-04T21:17:17.576Z,77.06
2022-12-04T21:22:21.244Z,77.79
2022-12-04T21:27:26.556Z,77.44
2022-12-04T21:32:30.159Z,76.27
2022-12-04T21:37:33.705Z,78.43
2022-12-04T21:42:38.950Z,79.47
2022-12-04T21:47:42.506Z,78.59
2022-12-04T21:52:46.056Z,81.46
2022-12-04T21:57:52.208Z,81.10
2022-12-04T22:02:55.863Z,81.40
2022-12-04T22:07:59.481Z,83.82
2022-12-04T22:13:06.343Z,87.26
2022-12-04T22:18:10.717Z,89.16
2022-12-04T22:23:14.300Z,89.20
2022-12-04T22:28:19.534Z,90.92
2022-12-04T22:33:23.094Z,91.96
2022-12-04T22:38:26.657Z,89.63
2022-12-04T22:43:36.392Z,92.19
2022-12-04T22:48:44.634Z,92.10
2022-12-04T22:53:50.229Z,93.43
2022-12-04T22:58:55.873Z,93.88
2022-12-04T23:03:59.966Z,95.97
2022-12-04T23:09:07.049Z,95.38
2022-12-04T23:14:15.396Z,93.30
2022-12-04T23:19:20.450Z,91.64
2022-12-04T23:24:24.135Z,94.05
2022-12-04T23:29:52.033Z,96.05
2022-12-04T23:34:53.759Z,93.07
2022-12-04T23:39:57.582Z,91.09
2022-12-04T23:45:02.882Z,88.98
2022-12-04T23:50:07.302Z,93.09
2022-12-04T23:55:11.097Z,91.29
